Burkhart, Kentucky
Current Conditions -  °F | °C
As of 3:53 AM on Sunday 23 Nov 2014 (Local Time) from KJKL Reporting Station
Overcast Overcast  
Wind Chill: 52°   Ceiling: 9500
Heat Index: 52°   Visibility: 10mi
Dew Point: 31°   Wind: 0mph
Humidity: 45%   Direction: NA
Pressure: 30.09"   Gusts: NA
Location:  37.7524°N, 83.5047°W
Report Text: KJKL 230853Z AUTO 00000KT 10SM OVC095 11/M01 A3009 RMK AO2 SLP185 T01111006 56009
Loading
Personal Weather Stations






























Interactive Weather Map New forecast layout! Learn more

10-Day Weather Forecast

Advertisements
Track Severe Weather on mobile